www.athle.fr
Accueil
SITE OFFICIEL
du tos athlétisme
  RÉSULTATS ROUTE 2014

Télécharger la page au format Pdf

Date Nom-Prénom Catégorie de la course Place Temps Catégorie Perf Nom de la Compétition
02/03/2014 ADELINE Caroline 1/2 Marathon TC 16803 1h57'00'' SEF/84 D5 Paris
02/03/2014 CAUDRY Arnaud 1/2 Marathon TC 7849 1h44'04'' SEM/81 D5 Paris
02/03/2014 MARCEL Claudine 1/2 Marathon TC 22320 2h05'13'' V2F/57 D7 Paris
09/03/2014 GIACOMELLI Julie 10 Km Route TC 55 37'24'' qi SEF/83 IR1 Witry les reims
09/03/2014 OLIVER Anthony 10 Km Route TC 71 38'42'' SEM/85 R6 Witry les reims
09/03/2014 VAILLANT-BULTEL Christophe 10 Km Route TC 48 37'08'' V1M/73 R4 Witry les reims
09/03/2014 ROCHER Christophe 11km 120 53'00'' VEM/74
Limoges
09/03/2014 GRANDNOM Marie-pierre 13 km 742 1h16'18'' VEF/62
Briey
09/03/2014 LEFEVRE Pierre 13 km 749 1h16'45'' VEM/56
Briey
15/03/2014 MARIA Sandrine SPORT ADAPTE (3.3 km) 18 22'04'' SEF/81
Les Noës Près Troyes
15/03/2014 BRETHOUS Sophie VALIDES (6.6 km) 88 30'39'' SEF/87
Les Noës Près Troyes
15/03/2014 BRUNGARD Frederic VALIDES (6.6 km) 25 25'04'' V1M/67
Les Noës Près Troyes
15/03/2014 CANARD Alain VALIDES (6.6 km) 49 27'26'' V2M/61
Les Noës Près Troyes
15/03/2014 CHAPPLAIN Cecile VALIDES (6.6 km) 80 29'24'' V1F/74
Les Noës Près Troyes
15/03/2014 COTARD Marjory VALIDES (6.6 km) 77 29'10'' SEF/76
Les Noës Près Troyes
15/03/2014 DOLLAT Frederic VALIDES (6.6 km) 55 27'34'' V2M/60
Les Noës Près Troyes
15/03/2014 DUBOIS Jean-claude VALIDES (6.6 km) 99 32'22'' V2M/63
Les Noës Près Troyes
15/03/2014 DUMONT Christelle VALIDES (6.6 km) 111 35'06'' V1F/74
Les Noës Près Troyes
15/03/2014 DUMONT Francois VALIDES (6.6 km) 39 26'30'' SEM/75
Les Noës Près Troyes
15/03/2014 EL KHAMSI Nordine VALIDES (6.6 km) 19 24'20'' SEM/77
Les Noës Près Troyes
15/03/2014 FABIANO Sebastien VALIDES (6.6 km) 83 29'58'' VEM/74
Les Noës Près Troyes
15/03/2014 FRIQUET Bruno VALIDES (6.6 km) 17 23'52'' VEM/71
Les Noës Près Troyes
15/03/2014 GERARD Frederic VALIDES (6.6 km) 28 25'15'' SEM/75
Les Noës Près Troyes
15/03/2014 GIOFFRED Sebastien VALIDES (6.6 km) 26 25'12'' VEM/72
Les Noës Près Troyes
15/03/2014 GUERNINE Mounira VALIDES (6.6 km) 116 35'54'' SEF/83
Les Noës Près Troyes
15/03/2014 GUSTAVE Patrice VALIDES (6.6 km) 8 23'28'' V1M/73
Les Noës Près Troyes
15/03/2014 HENRY Virginie VALIDES (6.6 km) 101 32'27'' V1F/73
Les Noës Près Troyes
15/03/2014 IMONJA Hellois VALIDES (6.6 km) 37 26'17'' CAM/97
Les Noës Près Troyes
15/03/2014 LAHEURTE Renaud VALIDES (6.6 km) 6 23'05'' V2M/64
Les Noës Près Troyes
15/03/2014 MARE Chantal VALIDES (6.6 km) 98 32'21'' V2F/57
Les Noës Près Troyes
15/03/2014 RICHARD Olivier VALIDES (6.6 km) 12 23'33'' SEM/78
Les Noës Près Troyes
15/03/2014 ROYON Vincent VALIDES (6.6 km) 58 27'41'' JUM/95
Les Noës Près Troyes
15/03/2014 SAUNOIS Helene VALIDES (6.6 km) 81 29'34'' SEF/81
Les Noës Près Troyes
15/03/2014 SEGUIN Benoit VALIDES (6.6 km) 125 37'49'' V3M/49
Les Noës Près Troyes
15/03/2014 VANDEWALLE Florence VALIDES (6.6 km) 21 24'23'' SEF/83
Les Noës Près Troyes
30/03/2014 BIDAULT Francois 10 Km Route TC 127 42'30'' qi V3M/50 D4 Saint Lyé
30/03/2014 BONNET Thibaut 10 Km Route TC 198 47'19'' SEM/78 D7 Saint Lyé
30/03/2014 BRETHOUS Sophie 10 Km Route TC 222 49'47'' SEF/87 D3 Saint Lyé
30/03/2014 CANARD Alain 10 Km Route TC 126 42'22'' V2M/61 D4 Saint Lyé
30/03/2014 CARTIER Mickael 10 Km Route TC 95 40'36'' SEM/81 D3 Saint Lyé
30/03/2014 CASAUBON Nicolas 10 Km Route TC 157 44'06'' V1M/67 D5 Saint Lyé
30/03/2014 CHAPPLAIN Cecile 10 Km Route TC 182 46'11'' qi V1F/74 R6 Saint Lyé
30/03/2014 CHEK Vincent 10 Km Route TC 96 40'39'' SEM/83 D3 Saint Lyé
30/03/2014 CHEPANSQUI Stephane 10 Km Route TC 25 36'09'' qi V1M/72 R3 Saint Lyé
30/03/2014 CLEMENT Emmanuel 10 Km Route TC 28 36'14'' qi V1M/67 R3 Saint Lyé
30/03/2014 COTARD Marjory 10 Km Route TC 155 43'59'' SEF/76 R3 Saint Lyé
30/03/2014 DA MOTA-LAFORET Fanny 10 Km Route TC 193 46'59'' ESF/93 R6 Saint Lyé
30/03/2014 DUMONT Christelle 10 Km Route TC 251 54'18'' V1F/74 D6 Saint Lyé
30/03/2014 DUMONT Francois 10 Km Route TC 107 41'27'' SEM/75 D3 Saint Lyé
30/03/2014 FRIQUET Bruno 10 Km Route TC 26 36'10'' qi V1M/71 R3 Saint Lyé
30/03/2014 GERARD Frederic 10 Km Route TC 75 39'07'' SEM/75 D1 Saint Lyé
30/03/2014 GFELLER Samuel 10 Km Route TC 51 37'32'' SEM/77 R5 Saint Lyé
30/03/2014 GUSTAVE Patrice 10 Km Route TC 31 36'24'' qi V1M/73 R3 Saint Lyé
30/03/2014 HAILLOT Frederic 10 Km Route TC 141 42'59'' V1M/67 D4 Saint Lyé
30/03/2014 HENRY Virginie 10 Km Route TC 243 52'59'' V1F/73 D5 Saint Lyé
30/03/2014 HUGUENOT Sylvere 10 Km Route TC 132 42'44'' V1M/68 D4 Saint Lyé
30/03/2014 JEANROY David 10 Km Route TC 110 41'45'' V1M/73 D4 Saint Lyé
30/03/2014 KABA Malik 10 Km Route TC 29 36'15'' ESM/92 R3 Saint Lyé
30/03/2014 LAHEURTE Renaud 10 Km Route TC 16 35'50'' qi V2M/64 R3 Saint Lyé
30/03/2014 LEBON Stephane 10 Km Route TC 33 36'30'' qi VEM/73 R3 Saint Lyé
30/03/2014 LOMBARDO Clemence 10 Km Route TC 278 1h01'57'' ESF/92 D8 Saint Lyé
30/03/2014 MICHON Magalie 10 Km Route TC 121 42'13'' qi SEF/76 R2 Saint Lyé
30/03/2014 NAYRAC Benoit 10 Km Route TC 48 37'17'' V1M/73 R5 Saint Lyé
30/03/2014 OLIVER Anthony 10 Km Route TC 43 37'08'' SEM/85 R4 Saint Lyé
30/03/2014 PINNA Eric 10 Km Route TC 7 34'17'' qi V1M/68 R1 Saint Lyé
30/03/2014 RICHARD Olivier 10 Km Route TC 80 39'31'' SEM/78 D2 Saint Lyé
30/03/2014 ROUYER Sylvain 10 Km Route TC 39 36'56'' SEM/83 R4 Saint Lyé
30/03/2014 SAUNOIS Helene 10 Km Route TC 194 46'59'' SEF/81 R6 Saint Lyé
30/03/2014 SERVEAUX Yves 10 Km Route TC 179 45'54'' qi V3M/49 D6 Saint Lyé
30/03/2014 VAILLANT-BULTEL Christophe 10 Km Route TC 27 36'10'' qi V1M/73 R3 Saint Lyé
30/03/2014 VANDEWALLE Florence 10 Km Route TC 47 37'17'' qi SEF/83 IR1 Saint Lyé
30/03/2014 VIGNE Sarah 10 Km Route TC 220 49'35'' SEF/86 D3 Saint Lyé
30/03/2014 VITTORI Xavier 10 Km Route TC 143 43'06'' V1M/67 D5 Saint Lyé
06/04/2014 BONNET Thibaut 10 Km Route 233 47'07'' SEM/78 D7 La Rivière de Corps
06/04/2014 BRUNGARD Alexandre 10 Km Route 28 35'49'' qi JUM/95 R3 La Rivière de Corps
06/04/2014 BRUNGARD Frederic 10 Km Route 118 40'06'' V1M/67 D2 La Rivière de Corps
06/04/2014 CANARD Alain 10 Km Route 165 43'27'' V2M/61 D5 La Rivière de Corps
06/04/2014 CARTIER Mickael 10 Km Route 122 40'17'' SEM/81 D2 La Rivière de Corps
06/04/2014 CASAUBON Nicolas 10 Km Route 207 45'45'' V1M/67 D6 La Rivière de Corps
06/04/2014 COTARD Marjory 10 Km Route 184 44'16'' SEF/76 R4 La Rivière de Corps
06/04/2014 DOBY Catheline 10 Km Route 334 56'40'' SEF/84 D7 La Rivière de Corps
06/04/2014 DUMONT Christelle 10 Km Route 333 56'24'' V1F/74 D7 La Rivière de Corps
06/04/2014 DUMONT Francois 10 Km Route 142 41'57'' SEM/75 D4 La Rivière de Corps
06/04/2014 DUQUE Emma 10 Km Route 132 41'03'' CAF/97 R1 La Rivière de Corps
06/04/2014 FERREIRA Bruno 10 Km Route 101 39'19'' SEM/79 D1 La Rivière de Corps
06/04/2014 FLIELLER Gregoire 10 Km Route 131 40'52'' V1M/70 D3 La Rivière de Corps
06/04/2014 GERARD Frederic 10 Km Route 98 39'17'' SEM/75 D1 La Rivière de Corps
06/04/2014 GFELLER Samuel 10 Km Route 63 37'53'' SEM/77 R5 La Rivière de Corps
06/04/2014 GIACOMELLI Julie 10 Km Route 58 37'32'' qi SEF/83 IR1 La Rivière de Corps
06/04/2014 HENRY Virginie 10 Km Route 311 52'34'' V1F/73 D5 La Rivière de Corps
06/04/2014 HUGUENOT Sylvere 10 Km Route 159 43'06'' V1M/68 D5 La Rivière de Corps
06/04/2014 IMONJA Hellois 10 Km Route 130 40'52'' CAM/97 D3 La Rivière de Corps
06/04/2014 KABA Malik 10 Km Route 37 36'09'' ESM/92 R3 La Rivière de Corps
06/04/2014 LAHEURTE Renaud 10 Km Route 32 36'02'' qi V2M/64 R3 La Rivière de Corps
06/04/2014 MAMER Patrick 10 Km Route 325 55'27'' V2M/57 D8 La Rivière de Corps
06/04/2014 MATHIOT Herve 10 Km Route 106 39'37'' SEM/83 D2 La Rivière de Corps
06/04/2014 MICHON Sebastien 10 Km Route 7 33'44'' qi V1M/74 IR4 La Rivière de Corps
06/04/2014 NAYRAC Benoit 10 Km Route 47 36'54'' qi V1M/73 R4 La Rivière de Corps
06/04/2014 OLIVER Anthony 10 Km Route 73 38'04'' SEM/85 R6 La Rivière de Corps
06/04/2014 PONSADA Eric 10 Km Route 170 43'30'' V1M/70 D5 La Rivière de Corps
06/04/2014 RICHARD Olivier 10 Km Route 64 37'54'' SEM/78 R5 La Rivière de Corps
06/04/2014 ROYON Vincent 10 Km Route 175 43'43'' JUM/95 D5 La Rivière de Corps
06/04/2014 SAUNOIS Helene 10 Km Route 227 46'52'' SEF/81 R6 La Rivière de Corps
06/04/2014 SERVEAUX Yves 10 Km Route 198 45'27'' qi V3M/49 D6 La Rivière de Corps
06/04/2014 SEURE David 10 Km Route 231 47'04'' SEM/77 D7 La Rivière de Corps
06/04/2014 THERENE Hubert 10 Km Route 324 54'27'' VEM/61 D8 La Rivière de Corps
06/04/2014 THOMAS Charles 10 Km Route 188 44'22'' SEM/78 D5 La Rivière de Corps
06/04/2014 TRAN Severine 10 Km Route 249 47'36'' qi V1F/69 D1 La Rivière de Corps
06/04/2014 VAN DE VELDE Joffrey 10 Km Route 259 47'56'' SEM/88 D7 La Rivière de Corps
06/04/2014 VANDEWALLE Florence 10 Km Route 51 37'04'' qi SEF/83 IR1 La Rivière de Corps
06/04/2014 VITTORI Xavier 10 Km Route 164 43'26'' V1M/67 D5 La Rivière de Corps
13/04/2014 DUMONT Christelle Cad, Jun, Esp, Sén, VétF. 44 27'05'' VEF/74
Saint André Les Vergers
13/04/2014 DUMONT Francois Cad, Jun, Esp, Sén, VétF. 16 20'53'' SEM/75
Saint André Les Vergers
13/04/2014 FERREIRA Bruno Cad, Jun, Esp, Sén, VétF. 12 19'49'' SEM/79
Saint André Les Vergers
13/04/2014 HENRY Virginie Cad, Jun, Esp, Sén, VétF. 43 26'14'' V1F/73
Saint André Les Vergers
13/04/2014 KABA Malik Cad, Jun, Esp, Sén, VétF. 6 18'49'' ESM/92
Saint André Les Vergers
13/04/2014 MATHIEU Sylvain Cad, Jun, Esp, Sén, VétF. 30 23'21'' V3M/53
Saint André Les Vergers
13/04/2014 MATHIOT Herve Cad, Jun, Esp, Sén, VétF. 13 20'04'' SEM/83
Saint André Les Vergers
13/04/2014 SEURE David Cad, Jun, Esp, Sén, VétF. 32 23'59'' SEM/77
Saint André Les Vergers
13/04/2014 SEURE Jerome Cad, Jun, Esp, Sén, VétF. 37 25'33'' V1M/70
Saint André Les Vergers
13/04/2014 BERGER Christelle Marathon TC 14730 4h12'57'' V1F/66 D1 Londres
19/04/2014 ADELINE Caroline 10 Km Route 372 00:59 SEF/84 D2 Dijon
21/04/2014 RICHARD Olivier 10 Km Route TC 21 37'18'' SEM/78 R5 Chatellerault
25/04/2014 VAILLANT-BULTEL Christophe 10 Km Route TC 24 37'08'' V1M/73 R4 Epernay
27/04/2014 DUBOIS Jean-claude 1/2 Marathon 217 01h49'14 VEM/63 D6 Moneteau
01/05/2014 ABATI Philippe 1/2 Marathon TC 1076 1h57'35'' V2M/61 D8 Nimes
01/05/2014 BERLOT Alexandre 10 Km Route 58 42'32'' SEM/80 D4 Villemaur sur Vanne
01/05/2014 BOURGEOIS Alexandre 10 Km Route 4 33'37'' qi SEM/90 IR4 Villemaur sur Vanne
01/05/2014 CARTIER Mickael 10 Km Route 85 44'28'' SEM/81 D5 Villemaur sur Vanne
01/05/2014 CHAPPLAIN Cecile 10 Km Route 96 45'51'' qi V1F/74 R5 Villemaur sur Vanne
01/05/2014 CHEPANSQUI Stephane 10 Km Route 10 35'49'' qi V1M/72 R3 Villemaur sur Vanne
01/05/2014 FRIQUET Bruno 10 Km Route 25 38'17'' V1M/71 R6 Villemaur sur Vanne
01/05/2014 GIACOMELLI Julie 10 Km Route 33 39'33'' qi SEF/83 IR3 Villemaur sur Vanne
01/05/2014 JEANROY David 10 Km Route 60 42'49'' V1M/73 D4 Villemaur sur Vanne
01/05/2014 KABA Malik 10 Km Route 14 36'47'' ESM/92 R4 Villemaur sur Vanne
01/05/2014 ROCHER Christophe 10 Km Route 89 44'58'' V1M/74 D5 Villemaur sur Vanne
01/05/2014 ROUYER Sylvain 10 Km Route 17 37'12'' SEM/83 R4 Villemaur sur Vanne
01/05/2014 ROYON Vincent 10 Km Route 74 43'43'' JUM/95 D5 Villemaur sur Vanne
01/05/2014 VANDEWALLE Florence 10 Km Route 23 38'10'' qi SEF/83 IR2 Villemaur sur Vanne
01/05/2014 GARNIER Monique 10 Km Route TC 1049 1h01'22'' V2F/60 D8 Nimes
01/05/2014 DELEPINE Xavier Marathon TC 1222 5h03'55'' V1M/69 D8 Sénart
01/05/2014 GERARDIN Christophe Marathon TC 365 3h32'31'' SEM/81 D3 Sénart
11/05/2014 BALTAZART Lucie 1/2 Marathon TC 317 1h38'01'' qi SEF/89 R4 Troyes
11/05/2014 BENOIT Charles 1/2 Marathon TC 104 1h26'15'' SEM/90 R6 Troyes
11/05/2014 BONNET Thibaut 1/2 Marathon TC 581 1h47'40'' SEM/78 D6 Troyes
11/05/2014 BRETHOUS Sophie 1/2 Marathon TC 687 1h51'21'' SEF/87 D4 Troyes
11/05/2014 CAILLIEZ Severine 1/2 Marathon TC 538 1h45'38'' SEF/76 D2 Troyes
11/05/2014 CANARD Alain 1/2 Marathon TC 260 1h36'20'' V2M/61 D3 Troyes
11/05/2014 CASAUBON Nicolas 1/2 Marathon TC 400 1h40'57'' V1M/67 D4 Troyes
11/05/2014 CAUDRY Arnaud 1/2 Marathon TC 188 1h32'11'' SEM/81 D2 Troyes
11/05/2014 CHEK Vincent 1/2 Marathon TC 186 1h31'59'' SEM/83 D2 Troyes
11/05/2014 CHEPANSQUI Stephane 1/2 Marathon TC 46 1h20'10'' qi V1M/72 R3 Troyes
11/05/2014 CLEMENT Emmanuel 1/2 Marathon TC 40 1h19'31'' qi V1M/67 R3 Troyes
11/05/2014 COTARD Marjory 1/2 Marathon TC 277 1h36'45'' qi SEF/76 R4 Troyes
11/05/2014 DERACHE David 1/2 Marathon TC 67 1h22'35'' ESM/93 R5 Troyes
11/05/2014 DOMINE Jean-marie 1/2 Marathon TC 432 1h42'07'' SEM/85 D5 Troyes
11/05/2014 DUBOIS Jean-claude 1/2 Marathon TC 420 1h41'44'' V2M/63 D5 Troyes
11/05/2014 DUMONT Francois 1/2 Marathon TC 224 1h34'35'' SEM/75 D3 Troyes
11/05/2014 FABIANO Sebastien 1/2 Marathon TC 821 1h57'09'' V1M/74 D8 Troyes
11/05/2014 FLIELLER Gregoire 1/2 Marathon TC 171 1h31'19'' V1M/70 D2 Troyes
11/05/2014 GERARD Frederic 1/2 Marathon TC 154 1h30'20'' SEM/75 D2 Troyes
11/05/2014 GIACOMELLI Julie 1/2 Marathon TC 543 1h45'41'' SEF/83 D2 Troyes
11/05/2014 GUSTAVE Patrice 1/2 Marathon TC 79 1h23'54'' V1M/73 R5 Troyes
11/05/2014 HAILLOT Frederic 1/2 Marathon TC 249 1h35'44'' V1M/67 D3 Troyes
11/05/2014 HENRY Virginie 1/2 Marathon TC 1030 2h20'18'' V1F/73 D8 Troyes
11/05/2014 HUGUES Paul 1/2 Marathon TC 185 1h31'53'' VEM/67 D2 Troyes
11/05/2014 JEANROY David 1/2 Marathon TC 192 1h32'12'' V1M/73 D2 Troyes
11/05/2014 KABA Malik 1/2 Marathon TC 70 1h23'00'' ESM/92 R5 Troyes
11/05/2014 LAHEURTE Renaud 1/2 Marathon TC 59 1h21'23'' qi V2M/64 R4 Troyes
11/05/2014 LECOMTE Patrick 1/2 Marathon TC 937 2h05'53'' V2M/61 D8 Troyes
11/05/2014 LELOVSKY Brigitte 1/2 Marathon TC 945 2h06'28'' V3F/53 D7 Troyes
11/05/2014 MICHELIN Samuel 1/2 Marathon TC 891 2h00'56'' SEM/80 D8 Troyes
11/05/2014 NAYRAC Benoit 1/2 Marathon TC 56 1h21'18'' V1M/73 R4 Troyes
11/05/2014 OLIVER Anthony 1/2 Marathon TC 175 1h31'21'' SEM/85 D2 Troyes
11/05/2014 PRIN Patricia 1/2 Marathon TC 944 2h06'28'' V2F/60 D7 Troyes
11/05/2014 QUESNE Julien 1/2 Marathon TC 106 1h26'21'' SEM/76 R6 Troyes
11/05/2014 RAULINE Jerome 1/2 Marathon TC 230 1h34'38'' SEM/78 D3 Troyes
11/05/2014 RICHARD Olivier 1/2 Marathon TC 84 1h24'31'' SEM/78 R6 Troyes
11/05/2014 SAUNOIS Helene 1/2 Marathon TC 410 1h41'16'' SEF/81 R6 Troyes
11/05/2014 SAUNOT Laurence 1/2 Marathon TC 350 1h39'15'' qi V1F/66 R5 Troyes
11/05/2014 SERVEAUX Yves 1/2 Marathon TC 324 1h38'20'' qi V3M/49 D4 Troyes
11/05/2014 SEURE Jerome 1/2 Marathon TC 931 2h05'28'' V1M/70 D8 Troyes
11/05/2014 THOMAS Charles 1/2 Marathon TC 362 1h39'45'' SEM/78 D4 Troyes
11/05/2014 VAN DE VELDE Joffrey 1/2 Marathon TC 597 1h48'11'' SEM/88 D6 Troyes
11/05/2014 VANDEWALLE Florence 1/2 Marathon TC 57 1h21'18'' qi SEF/83 N4 Troyes
11/05/2014 VITTORI Xavier 1/2 Marathon TC 243 1h35'34'' V1M/67 D3 Troyes
11/05/2014 WAGNER Remi 1/2 Marathon TC 514 1h45'13'' V2M/63 D6 Troyes
11/05/2014 ABATI Philippe Course Populaire 7km 168 37'06'' V2M/61
Troyes
11/05/2014 ADELINE Caroline Course Populaire 7km 71 32'52'' SEF/84
Troyes
11/05/2014 CARTIER Mickael Course Populaire 7km 48 30'52'' SEM/81
Troyes
11/05/2014 CRESSONNIER Rodolphe Course Populaire 7km 57 31'45'' V1M/73
Troyes
11/05/2014 DA MOTA-LAFORET Fanny Course Populaire 7km 68 32'39'' ESF/93
Troyes
11/05/2014 DESVAUX Stephanie Course Populaire 7km 261 39'56'' SEF/88
Troyes
11/05/2014 DUMONT Christelle Course Populaire 7km 320 42'15'' V1F/74
Troyes
11/05/2014 DUQUE Emma Course Populaire 7km 32 29'01'' CAF/97
Troyes
11/05/2014 FRIQUET Bruno Course Populaire 7km 10 26'43'' V1M/71
Troyes
11/05/2014 GARNIER Monique Course Populaire 7km 321 42'18'' V2F/60
Troyes
11/05/2014 KLEIN Florian Course Populaire 7km 61 32'12'' CAM/97
Troyes
11/05/2014 MAMER Patrick Course Populaire 7km 258 39'50'' V2M/57
Troyes
11/05/2014 ROYON Vincent Course Populaire 7km 50 31'14'' JUM/95
Troyes
11/05/2014 SIMON Alicia Course Populaire 7km 185 37'49'' JUF/96
Troyes
11/05/2014 SIMON Chloe Course Populaire 7km 108 34'38'' MIF/99
Troyes
11/05/2014 VAILLANT-BULTEL Christophe Course Populaire 7km 6 26'11'' V1M/73
Troyes
17/05/2014 CAUDRY Arnaud 18 km 276 2h24'09'' SEM/81
St mathieu de t
23/05/2014 CAILLIEZ Severine C5:5Kms CA 492 29'49'' SEF/76
Nevers
25/05/2014 BONNET Thibaut FOULEES NOGENTAISES 10 KM 51 46'42'' SEM/78
Nogent sur Seine
25/05/2014 LAHEURTE Renaud FOULEES NOGENTAISES 10 KM 4 36'45'' V2M/64
Nogent sur Seine
25/05/2014 SAUNOIS Helene FOULEES NOGENTAISES 10 KM 50 46'02'' SEF/81
Nogent sur Seine
25/05/2014 WAGNER Remi FOULEES NOGENTAISES 10 KM 47 45'43'' V2M/63
Nogent sur Seine
25/05/2014 DOLLAT Frederic FOULEES NOGENTAISES 5 KM 14 21'47'' V2M/60
Nogent sur Seine
25/05/2014 HUGUENOT Sylvere Marathon TC 793 3h38'40'' V1M/68 D4 Cancale
01/06/2014 DOLLAT Frederic 5 km 23 24'11'' V2M/60
Saint brice
06/06/2014 GUSTAVE Patrice 10 Km Route TC 71 38'32'' V1M/73 R6 Melun
06/06/2014 ROUYER Sylvain 10 Km Route TC 62 37'57'' SEM/83 R5 Melun
06/06/2014 VAILLANT-BULTEL Christophe 10 Km Route TC 73 38'34'' VEM/73 R6 Melun
07/06/2014 DUMONT Christelle COURSE 2 37 30'57'' V1F/74
Bologne
15/06/2014 DOLLAT Frederic 11 km TC 22 48'09'' VEM/60
Sezanne
15/06/2014 DUBOIS Jean-claude Marathon TC 53 3h35'54'' V2M/63 D4 Montier en der
13/07/2014 BOURGEOIS Alexandre 15 Km Route TC 3 54'48'' SEM/90
Vosnon
13/07/2014 CASAUBON Nicolas 15 Km Route TC 75 1h18'20'' VEM/67
Vosnon
13/07/2014 COTARD Marjory 15 Km Route TC 62 1h13'57'' SEF/76
Vosnon
13/07/2014 GERARD Frederic 15 Km Route TC 24 1h06'16'' SEM/75
Vosnon
13/07/2014 LAHEURTE Renaud 15 Km Route TC 6 59'08'' VEM/64
Vosnon
13/07/2014 MARE Chantal 15 Km Route TC 82 1h22'02'' VEF/57
Vosnon
13/07/2014 STEPHAN Yannick 15 Km Route TC 8 59'30'' SEM/83
Vosnon
13/07/2014 VAILLANT-BULTEL Christophe 15 Km Route TC 12 1h01'00'' VEM/73
Vosnon
27/07/2014 MARCEL Claudine 20 KM 778 2h04'08'' VEF/57
Lannion
03/08/2014 BOURGEOIS Alexandre Foulées 9,7 km 3 32'47'' SEM/90
Douarnenez
09/08/2014 BOURGEOIS Alexandre Foulees De Brasparts 20 k 1 1h14'44'' SEM/90
Brasparts
10/08/2014 WAGNER Remi 10,6 km 281 50'48'' V2M/63
Saint michel ch
10/08/2014 SAUNOT Laurence La suarellaise 54 1h26'01'' VEF/66
Eccica suarella
15/08/2014 WAGNER Remi 9,5 km 510 55'52'' V2M/63
St brevin
20/08/2014 OLIVER Anthony 7km 57 24'34'' SEM/85
Torreilles
30/08/2014 BOURGEOIS Alexandre Foulées 14 km 2 48'00'' SEM/90
Tregunc
06/09/2014 BOURGEOIS Alexandre 10 Km Route 1 33'36'' SEM/90
Chateaulin
07/09/2014 ABATI Philippe 12 KM/JU. ES. SE. VET 100 1h03'04'' V2M/61
Saint mesmin
07/09/2014 BONICHON Franck 12 KM/JU. ES. SE. VET 44 52'59'' V1M/70
Saint mesmin
07/09/2014 CARTIER Mickael 12 KM/JU. ES. SE. VET 34 51'21'' SEM/81
Saint mesmin
07/09/2014 CHAPPLAIN Cecile 12 KM/JU. ES. SE. VET 62 55'47'' V1F/74
Saint mesmin
07/09/2014 CLERGET Didier 12 KM/JU. ES. SE. VET 116 1h11'29'' V2M/63
Saint mesmin
07/09/2014 COTARD Marjory 12 KM/JU. ES. SE. VET 55 54'15'' SEF/76
Saint mesmin
07/09/2014 DUBOIS Jean-claude 12 KM/JU. ES. SE. VET 86 1h00'12'' V2M/63
Saint mesmin
07/09/2014 DUMONT Francois 12 KM/JU. ES. SE. VET 57 54'17'' SEM/75
Saint mesmin
07/09/2014 FAREZ Christian 12 KM/JU. ES. SE. VET 39 52'19'' V1M/67
Saint mesmin
07/09/2014 FERRY Valerie 12 KM/JU. ES. SE. VET 114 1h10'53'' V1F/66
Saint mesmin
07/09/2014 GUICHERD Dominique 12 KM/JU. ES. SE. VET 87 1h00'16'' V2F/56
Saint mesmin
07/09/2014 HIMEUR Horia 12 KM/JU. ES. SE. VET 120 1h13'31'' V2F/63
Saint mesmin
07/09/2014 HUGUES Paul 12 KM/JU. ES. SE. VET 30 50'51'' V1M/67
Saint mesmin
07/09/2014 LAHEURTE Renaud 12 KM/JU. ES. SE. VET 7 44'29'' V2M/64
Saint mesmin
07/09/2014 LECOMTE Nathalie 12 KM/JU. ES. SE. VET 119 1h13'22'' V1F/71
Saint mesmin
07/09/2014 LECOMTE Patrick 12 KM/JU. ES. SE. VET 113 1h10'49'' V2M/61
Saint mesmin
07/09/2014 LELOVSKY Brigitte 12 KM/JU. ES. SE. VET 115 1h11'09'' V3F/53
Saint mesmin
07/09/2014 LELOVSKY Joel 12 KM/JU. ES. SE. VET 98 1h02'43'' V3M/50
Saint mesmin
07/09/2014 OLIVER Anthony 12 KM/JU. ES. SE. VET 17 48'08'' SEM/85
Saint mesmin
07/09/2014 SZEWCZYK Sophie 12 KM/JU. ES. SE. VET 73 58'02'' V1F/67
Saint mesmin
07/09/2014 TRAN Severine 12 KM/JU. ES. SE. VET 79 58'36'' V1F/69
Saint mesmin
07/09/2014 VANDEWALLE Florence 12 KM/JU. ES. SE. VET 10 45'35'' SEF/83
Saint mesmin
07/09/2014 CHEPANSQUI Stephane 6 KM/CA.JU.ES.SE.VE 2 20'45'' V1M/72
Saint mesmin
07/09/2014 CLERGET Sylvie 6 KM/CA.JU.ES.SE.VE 69 34'48'' V2F/64
Saint mesmin
07/09/2014 DELEPINE Xavier 6 KM/CA.JU.ES.SE.VE 64 33'07'' V1M/69
Saint mesmin
07/09/2014 DEMIT Carole 6 KM/CA.JU.ES.SE.VE 75 37'54'' V1F/69
Saint mesmin
07/09/2014 DOLLAT Frederic 6 KM/CA.JU.ES.SE.VE 24 25'22'' V2M/60
Saint mesmin
07/09/2014 DUMONT Christelle 6 KM/CA.JU.ES.SE.VE 60 32'22'' V1F/74
Saint mesmin
07/09/2014 FERREIRA Bruno 6 KM/CA.JU.ES.SE.VE 12 22'41'' SEM/79
Saint mesmin
07/09/2014 FRIQUET Bruno 6 KM/CA.JU.ES.SE.VE 4 21'04'' V1M/71
Saint mesmin
07/09/2014 GARNIER Monique 6 KM/CA.JU.ES.SE.VE 72 37'01'' V2F/60
Saint mesmin
07/09/2014 GIACOMELLI Julie 6 KM/CA.JU.ES.SE.VE 11 22'40'' SEF/83
Saint mesmin
07/09/2014 GOBANCE Daniel 6 KM/CA.JU.ES.SE.VE 73 37'02'' V2M/56
Saint mesmin
07/09/2014 GUSTAVE Patrice 6 KM/CA.JU.ES.SE.VE 5 21'37'' V1M/73
Saint mesmin
07/09/2014 MAMER Patrick 6 KM/CA.JU.ES.SE.VE 49 31'03'' V2M/57
Saint mesmin
07/09/2014 PREVOST Sandrine 6 KM/CA.JU.ES.SE.VE 57 32'07'' V1F/67
Saint mesmin
07/09/2014 COQUARD--HENRY Ilona POUSSINS / BENJAMINS 27 9'22'' POF/03
Saint mesmin
07/09/2014 COQUARD-HENRY Florian POUSSINS / BENJAMINS 43 12'15'' POM/03
Saint mesmin
07/09/2014 COQUARD-HENRY Ilian POUSSINS / BENJAMINS 47 12'50'' BEM/01
Saint mesmin
07/09/2014 DUMONT Jeremy POUSSINS / BENJAMINS 39 11'07'' POM/04
Saint mesmin
07/09/2014 LEBRUN Jules POUSSINS / BENJAMINS 1 7'31'' POM/04
Saint mesmin
07/09/2014 LEBRUN Louise POUSSINS / BENJAMINS 4 8'01'' BEF/01
Saint mesmin
07/09/2014 NOEL Elliot POUSSINS / BENJAMINS 21 8'52'' POM/03
Saint mesmin
07/09/2014 NOEL Lola POUSSINS / BENJAMINS 24 9'10'' BEF/01
Saint mesmin
13/09/2014 ADELINE Caroline 10 Km Route TC 257 46'19'' SEF/84 R6 Chaumont
13/09/2014 CARTIER Mickael 10 Km Route TC 128 42'24'' SEM/81 D4 Chaumont
13/09/2014 GIACOMELLI Julie 10 Km Route TC 66 39'35'' qi SEF/83 IR3 Chaumont
13/09/2014 RICHARD Olivier 10 Km Route TC 25 36'42'' SEM/78 R4 Chaumont
13/09/2014 VAILLANT-BULTEL Christophe 10 Km Route TC 37 37'47'' VEM/73 R5 Chaumont
13/09/2014 VEUILLEMENOT Laure 10 Km Route TC 422 51'46'' SEF/90 D4 Chaumont
14/09/2014 BONNET Thibaut 12 km 85 58'34'' SEM/78
Vaudes
14/09/2014 CARTON Philomene 12 km 119 1h09'38'' CAF/98
Vaudes
14/09/2014 FERREIRA Bruno 12 km 19 47'31'' SEM/79
Vaudes
14/09/2014 GERARD Frederic 12 km 29 49'41'' SEM/75
Vaudes
14/09/2014 GERARDIN Christophe 12 km 35 50'29'' SEM/81
Vaudes
14/09/2014 GIOFFRED Sebastien 12 km 34 50'17'' V1M/72
Vaudes
14/09/2014 LAHEURTE Renaud 12 km 7 44'02'' V2M/64
Vaudes
14/09/2014 OLIVER Anthony 12 km 20 47'41'' SEM/85
Vaudes
14/09/2014 STEPHAN Yannick 12 km 11 44'34'' SEM/83
Vaudes
14/09/2014 SZEWCZYK Sophie 12 km 81 57'30'' V1F/67
Vaudes
14/09/2014 THIERARD-LASNERET Anabel 12 km 106 1h03'37'' V1F/71
Vaudes
14/09/2014 THOMAS Charles 12 km 59 53'41'' SEM/78
Vaudes
14/09/2014 VANDEWALLE Florence 12 km 14 44'51'' SEF/83
Vaudes
14/09/2014 BALSAMO Jean-charles 6 km 9 23'01'' V1M/70
Vaudes
14/09/2014 DEBLOCK Baptiste 6 km 5 20'46'' CAM/97
Vaudes
14/09/2014 DELEPINE Xavier 6 km 22 30'24'' V1M/69
Vaudes
14/09/2014 DEMIT Carole 6 km 33 36'17'' V1F/69
Vaudes
14/09/2014 DOLLAT Frederic 6 km 12 24'48'' V2M/60
Vaudes
14/09/2014 DUMONT Christelle 6 km 25 30'33'' V1F/74
Vaudes
14/09/2014 MAMER Patrick 6 km 21 29'56'' V2M/57
Vaudes
14/09/2014 PINNA Eric 6 km 3 19'56'' V1M/68
Vaudes
14/09/2014 ROUYER Sylvain 6 km 6 21'02'' SEM/83
Vaudes
14/09/2014 DHILLY Victor 6/9 ans - - EAM/05
Vaudes
14/09/2014 FEVRIER Anatole 6/9 ans - - EAM/05
Vaudes
14/09/2014 GERARD Adrien 9/13 ans 15 - BEM/02
Vaudes
14/09/2014 GERARD Pierre 9/13 ans 12 - EAM/05
Vaudes
14/09/2014 LASNERET Apolin 9/13 ans 3 - MIM/99
Vaudes
14/09/2014 LEBRUN Jules 9/13 ans 2 - POM/04
Vaudes
14/09/2014 LEBRUN Louise 9/13 ans 4 - BEF/01
Vaudes
14/09/2014 MENNERAT Thomas 9/13 ans 7 - POM/04
Vaudes
14/09/2014 MENNERAT Tristan 9/13 ans 13 - POM/04
Vaudes
14/09/2014 NOEL Elliot 9/13 ans 20 - POM/03
Vaudes
14/09/2014 NOEL Lola 9/13 ans 11 - BEF/01
Vaudes
14/09/2014 RAMBUT Corentin 9/13 ans 1 - BEM/01
Vaudes
14/09/2014 WACOMBER Maxime 9/13 ans 10 - BEM/02
Vaudes
19/09/2014 GAGNAIRE Virginie JOGGING AGGLO TC 4 44'17'' SEF/77
Troyes
19/09/2014 JACQUINOT Jack JOGGING AGGLO TC 11 50'45'' VEM/53
Troyes
19/09/2014 MARE Chantal JOGGING AGGLO TC 5 - V2F/57
Troyes
21/09/2014 AVELINE Paul 10 Km Challenge EDF March 11 1h30'12'' V3M/49
Romilly
21/09/2014 BEULLE Bernard 10 Km Challenge EDF March 3 1h15'43'' VEM/57
Romilly
21/09/2014 CHAPU Jean-louis 10 Km Challenge EDF March 7 1h21'35'' VEM/62
Romilly
21/09/2014 LEBRUN Catherine 10 Km Challenge EDF March 8 1h23'23'' VEF/51
Romilly
21/09/2014 SAUVAGE Marc 10 Km Challenge EDF March 1 1h11'28'' VEM/73
Romilly
21/09/2014 THOMAS Madeleine 10 Km Challenge EDF March 5 1h18'59'' V3F/48
Romilly
21/09/2014 BONNET Thibaut 16.7km TC 355 1h29'16'' SEM/78
Provins
21/09/2014 CASAUBON Nicolas 16.7km TC 236 1h24'33'' V1M/67
Provins
21/09/2014 CHAPPLAIN Cecile 16.7km TC 259 1h25'55'' V1F/74
Provins
21/09/2014 COTARD Marjory 16.7km TC 152 1h20'23'' SEF/76
Provins
21/09/2014 GIACOMELLI Julie 16.7km TC 33 1h08'08'' SEF/83
Provins
21/09/2014 WAGNER Remi 16.7km TC 260 1h25'57'' V2M/63
Provins
21/09/2014 DUBOIS Jean-claude 20 km environ 584 1h40'00'' VEM/63
Tours
21/09/2014 DOLLAT Frederic 6km TC 65 26'58'' V2M/60
Provins
28/09/2014 DUMONT Christelle 10 Km Route 250 54'32'' V1F/74
Vitry le franco
28/09/2014 DUMONT Francois 10 Km Route 74 42'35'' SEM/75
Vitry le franco
28/09/2014 THOMAS Charles 10 Km Route 128 46'01'' SEM/78
Vitry le franco
28/09/2014 BERLOT Alexandre 15,8 km Individuel 46 1h09'47'' SEM/80
La chapelle st
28/09/2014 CANARD Alain 15,8 km Individuel 65 1h12'21'' V2M/61
La chapelle st
28/09/2014 CASAUBON Nicolas 15,8 km Individuel 111 1h18'55'' V1M/67
La chapelle st
28/09/2014 COTARD Marjory 15,8 km Individuel 78 1h13'59'' SEF/76
La chapelle st
28/09/2014 DUBOIS Jean-claude 15,8 km Individuel 120 1h20'39'' V2M/63
La chapelle st
28/09/2014 FABIANO Sebastien 15,8 km Individuel 143 1h25'12'' V1M/74
La chapelle st
28/09/2014 GAGNAIRE Virginie 15,8 km Individuel 170 1h30'43'' SEF/77
La chapelle st
28/09/2014 GERARD Frederic 15,8 km Individuel 44 1h09'38'' SEM/75
La chapelle st
28/09/2014 HAILLOT Frederic 15,8 km Individuel 67 1h12'34'' V1M/67
La chapelle st
28/09/2014 HERVY Alain 15,8 km Individuel 169 1h30'42'' VEM/55
La chapelle st
28/09/2014 HUGUES Paul 15,8 km Individuel 62 1h12'04'' VEM/67
La chapelle st
28/09/2014 JEANROY David 15,8 km Individuel 71 1h13'07'' V1M/73
La chapelle st
28/09/2014 SANSONNY Philippe 15,8 km Individuel 60 1h11'52'' V1M/68
La chapelle st
28/09/2014 STEPHAN Yannick 15,8 km Individuel 9 1h01'58'' SEM/83
La chapelle st
28/09/2014 VANDEWALLE Florence 15,8 km Individuel 6 1h01'20'' SEF/83
La chapelle st
28/09/2014 WAGNER Remi 15,8 km Individuel 100 1h17'03'' V2M/63
La chapelle st
05/10/2014 CARTIER Mickael sedan charleville 519 1h51'22'' SEM/81
Sedan charlevil
05/10/2014 CHAPPLAIN Cecile sedan charleville 1034 2h00'16'' VEF/74
Sedan charlevil
05/10/2014 DEBOUT Herve sedan charleville 927 1h58'46'' SEM/83
Sedan charlevil
05/10/2014 DUMONT Francois sedan charleville 473 1h50'26'' SEM/75
Sedan charlevil
05/10/2014 GIACOMELLI Julie sedan charleville 84 1h35'57'' SEF/83
Sedan charlevil
05/10/2014 JEANROY David sedan charleville 682 1h54'24'' VEM/73
Sedan charlevil
05/10/2014 LAHEURTE Renaud sedan charleville 63 1h33'35'' VEM/64
Sedan charlevil
05/10/2014 RICHARD Olivier sedan charleville 194 1h41'40'' SEM/78
Sedan charlevil
05/10/2014 ROUYER Sylvain sedan charleville 114 1h37'36'' SEM/83
Sedan charlevil
05/10/2014 TISSOT Olivier sedan charleville 1835 2h15'32'' SEM/81
Sedan charlevil
05/10/2014 VAILLANT-BULTEL Christophe sedan charleville 107 1h37'13'' VEM/73
Sedan charlevil
05/10/2014 BONNET Thibaut Tour du bouchon TC 326 32'34'' SEM/78
Troyes
05/10/2014 BOUDIN Michel Tour du bouchon TC 426 34'11'' V2M/59
Troyes
05/10/2014 BRUN Patrick Tour du bouchon TC 371 33'11'' V2M/62
Troyes
05/10/2014 CARTIER Julien Tour du bouchon TC 157 29'19'' ESM/94
Troyes
05/10/2014 CASANOVA Sandrine Tour du bouchon TC 238 30'53'' V1F/68
Troyes
05/10/2014 CLERGET Didier Tour du bouchon TC 552 37'18'' V2M/63
Troyes
05/10/2014 CLERGET Sylvie Tour du bouchon TC 724 41'23'' V2F/64
Troyes
05/10/2014 COTARD Marjory Tour du bouchon TC 186 29'47'' SEF/76
Troyes
05/10/2014 DERACHE David Tour du bouchon TC 15 23'39'' ESM/93
Troyes
05/10/2014 DOLLAT Frederic Tour du bouchon TC 154 29'17'' V2M/60
Troyes
05/10/2014 DUBOIS Jean-claude Tour du bouchon TC 338 32'43'' V2M/63
Troyes
05/10/2014 DUMANGE Nicolas Tour du bouchon TC 746 41'55'' MIM/99
Troyes
05/10/2014 DUMONT Christelle Tour du bouchon TC 539 36'54'' V1F/74
Troyes
05/10/2014 DUMONT Xavier Tour du bouchon TC 293 31'50'' CAM/98
Troyes
05/10/2014 FABIANO Sebastien Tour du bouchon TC 289 31'47'' V1M/74
Troyes
05/10/2014 FERREIRA Bruno Tour du bouchon TC 42 25'27'' SEM/79
Troyes
05/10/2014 FRIQUET Bruno Tour du bouchon TC 33 24'47'' VEM/71
Troyes
05/10/2014 GAGNAIRE Philippe Tour du bouchon TC 503 35'49'' V1M/71
Troyes
05/10/2014 GAGNAIRE Virginie Tour du bouchon TC 687 40'13'' SEF/77
Troyes
05/10/2014 GERARDIN Christophe Tour du bouchon TC 112 28'07'' SEM/81
Troyes
05/10/2014 GFELLER Samuel Tour du bouchon TC 45 25'33'' SEM/77
Troyes
05/10/2014 GIOFFRED Sebastien Tour du bouchon TC 68 26'33'' V1M/72
Troyes
05/10/2014 GOBANCE Daniel Tour du bouchon TC 821 46'12'' V2M/56
Troyes
05/10/2014 GUICHERD Aubery Tour du bouchon TC 810 45'44'' SEF/88
Troyes
05/10/2014 GUICHERD Dominique Tour du bouchon TC 811 45'45'' V2F/56
Troyes
05/10/2014 HAILLOT Frederic Tour du bouchon TC 201 30'02'' V1M/67
Troyes
05/10/2014 HERVY Alain Tour du bouchon TC 498 35'44'' VEM/55
Troyes
05/10/2014 HUGUENOT Sylvere Tour du bouchon TC 272 31'32'' V1M/68
Troyes
05/10/2014 IQUI Mylene Tour du bouchon TC 701 40'35'' V1F/71
Troyes
05/10/2014 LASNERET David Tour du bouchon TC 27 24'32'' V1M/74
Troyes
05/10/2014 LECOMTE Nathalie Tour du bouchon TC 672 39'51'' V1F/71
Troyes
05/10/2014 LECOMTE Patrick Tour du bouchon TC 562 37'34'' V2M/61
Troyes
05/10/2014 MITH Gael Tour du bouchon TC 72 26'41'' SEM/81
Troyes
05/10/2014 NEUMANN Laurianne Tour du bouchon TC 362 33'00'' ESF/93
Troyes
05/10/2014 NIORE Damien Tour du bouchon TC 295 31'52'' V1M/74
Troyes
05/10/2014 OLIVER Anthony Tour du bouchon TC 48 25'47'' SEM/85
Troyes
05/10/2014 PARIGAUX Pascal Tour du bouchon TC 118 28'22'' V1M/70
Troyes
05/10/2014 PINNA Eric Tour du bouchon TC 6 22'21'' V1M/68
Troyes
05/10/2014 PRIN Patricia Tour du bouchon TC 702 40'35'' V2F/60
Troyes
05/10/2014 RICHARD Nathalie Tour du bouchon TC 696 40'26'' VEF/66
Troyes
05/10/2014 SEGUIN Benoit Tour du bouchon TC 607 38'30'' VEM/49
Troyes
05/10/2014 SEURE David Tour du bouchon TC 274 31'32'' SEM/77
Troyes
05/10/2014 SIMON Alicia Tour du bouchon TC 692 40'23'' JUF/96
Troyes
05/10/2014 SIMON Chloe Tour du bouchon TC 368 33'07'' MIF/99
Troyes
05/10/2014 STEPHAN Yannick Tour du bouchon TC 25 24'27'' SEM/83
Troyes
05/10/2014 SZEWCZYK Sophie Tour du bouchon TC 308 32'08'' V1F/67
Troyes
05/10/2014 THIERARD-LASNERET Anabel Tour du bouchon TC 442 34'37'' V1F/71
Troyes
05/10/2014 VANDEWALLE Florence Tour du bouchon TC 34 24'53'' SEF/83
Troyes
12/10/2014 THERENE Hubert 10 km 70 47'23'' VEM/61
Arcis sur aube
12/10/2014 FERREIRA Bruno 20 Km Route TC 21537 2h11'40'' SEM/79 D8 Paris
12/10/2014 DOLLAT Frederic 5 km 10 21'57'' V2M/60
Arcis sur aube
12/10/2014 BERTHELIN Cloe Course Des Copines TCF 148 39'01'' CAF/98
Saint julien le
12/10/2014 BERTHELIN Sophie Course Des Copines TCF 208 44'05'' V1F/67
Saint julien le
12/10/2014 BRASSET Frederique Course Des Copines TCF 74 35'01'' V1F/67
Saint julien le
12/10/2014 CARTON Philomene Course Des Copines TCF 51 33'18'' CAF/98
Saint julien le
12/10/2014 CASANOVA Sandrine Course Des Copines TCF 12 29'03'' VEF/68
Saint julien le
12/10/2014 COTARD Marjory Course Des Copines TCF 7 27'53'' SEF/76
Saint julien le
12/10/2014 DEMIT Carole Course Des Copines TCF 144 38'44'' V1F/69
Saint julien le
12/10/2014 DESTENAY Katia Course Des Copines TCF 103 36'12'' V1F/70
Saint julien le
12/10/2014 FAREZ Valerie Course Des Copines TCF 177 40'30'' V1F/68
Saint julien le
12/10/2014 GAGNAIRE Virginie Course Des Copines TCF 32 32'08'' SEF/77
Saint julien le
12/10/2014 GIACOMELLI Julie Course Des Copines TCF 2 25'35'' SEF/83
Saint julien le
12/10/2014 GUICHERD Aubery Course Des Copines TCF 183 41'08'' SEF/88
Saint julien le
12/10/2014 GUICHERD Dominique Course Des Copines TCF 147 38'58'' V2F/56
Saint julien le
12/10/2014 HENRY Virginie Course Des Copines TCF 127 37'32'' V1F/73
Saint julien le
12/10/2014 LECOMTE Nathalie Course Des Copines TCF 62 34'21'' V1F/71
Saint julien le
12/10/2014 LELOVSKY Brigitte Course Des Copines TCF 85 35'35'' V3F/53
Saint julien le
12/10/2014 LIEBAERT Charlotte Course Des Copines TCF 156 39'19'' SEF/84
Saint julien le
12/10/2014 MARCEL Claudine Course Des Copines TCF 43 32'29'' V2F/57
Saint julien le
12/10/2014 MOULINET Ketty Course Des Copines TCF 146 38'57'' SEF/79
Saint julien le
12/10/2014 NUNEZ Sandrine Course Des Copines TCF 197 42'17'' V1F/69
Saint julien le
12/10/2014 PELLET Julie Course Des Copines TCF 145 38'44'' CAF/98
Saint julien le
12/10/2014 PENFORNIS Cecile Course Des Copines TCF 16 29'45'' V1F/72
Saint julien le
12/10/2014 PREVOST Sandrine Course Des Copines TCF 56 33'57'' V1F/67
Saint julien le
12/10/2014 PRIN Patricia Course Des Copines TCF 80 35'12'' V2F/60
Saint julien le
12/10/2014 RICHARD Nathalie Course Des Copines TCF 94 35'52'' V1F/66
Saint julien le
12/10/2014 SZEWCZYK Sophie Course Des Copines TCF 18 29'58'' V1F/67
Saint julien le
12/10/2014 THIERARD-LASNERET Anabel Course Des Copines TCF 31 32'07'' V1F/71
Saint julien le
12/10/2014 THOMAS Madeleine Course Des Copines TCF 118 36'51'' V3F/48
Saint julien le
12/10/2014 TRAN Severine Course Des Copines TCF 19 30'06'' V1F/69
Saint julien le
12/10/2014 VANDEWALLE Florence Course Des Copines TCF 1 23'29'' SEF/83
Saint julien le
12/10/2014 VIGNEAU Astrid Course Des Copines TCF 87 35'37'' V1F/72
Saint julien le
12/10/2014 SERVEAUX Yves Marathon TC 191 3h29'05'' qi V3M/49 D3 Metz
18/10/2014 DUBOIS Jean-claude Marathon TC 325 3h41'01'' V2M/63 D4 Vannes
18/10/2014 MARCEL Claudine Marathon TC 1008 4h21'02'' V2F/57 D3 Vannes
19/10/2014 BERLOT Alexandre 1/2 Marathon TC 289 1h31'50'' SEM/80 D2 Reims
19/10/2014 LASNERET David 1/2 Marathon TC 53 1h22'32'' V1M/74 R5 Reims
19/10/2014 THERENE Hubert 1/2 Marathon TC 1651 1h51'55'' VEM/61 D7 Reims
19/10/2014 THIERARD-LASNERET Anabel 1/2 Marathon TC 2650 2h05'12'' V1F/71 D7 Reims
19/10/2014 THOMAS Charles 1/2 Marathon TC 1182 1h46'19'' SEM/78 D6 Reims
19/10/2014 BALSAMO Jean-charles 10 Km Route TC 160 40'54'' V1M/70 D3 Reims
19/10/2014 DESTENAY Katia 10 Km Route TC 3684 1h01'03'' VEF/70 D8 Reims
19/10/2014 DUC Marie-christine 10 Km Route TC 2561 56'53'' V2F/56 D7 Reims
19/10/2014 SEURE Jerome 10 Km Route TC 2105 55'01'' VEM/70 D8 Reims
19/10/2014 SZEWCZYK Sophie 10 Km Route TC 162 45'14'' VEF/67
Crosne
19/10/2014 VAILLANT-BULTEL Christophe 10 Km Route TC 41 37'12'' V1M/73 R4 Reims
19/10/2014 MARTIN Alexandre 3 km TC 22 13'59'' BEM/01
Crosne
19/10/2014 RAULINE Jerome Marathon TC 238 3h34'55'' SEM/78 D4 Reims
19/10/2014 TISSOT Olivier Marathon TC 124 3h20'35'' SEM/81 D2 Reims
26/10/2014 COTARD Marjory 1/2 Marathon TCF 130 1h38'47'' qi SEF/76 R5 Saint-denis
26/10/2014 GIACOMELLI Julie 1/2 Marathon TCF 10 1h22'06'' qi SEF/83 IR1 Saint-denis
26/10/2014 MARE Chantal 1/2 Marathon TCF 282 1h51'25'' qi V2F/57 D4 Saint-denis
26/10/2014 SAUNOT Laurence 1/2 Marathon TCF 145 1h40'11'' qi V1F/66 R5 Saint-denis
26/10/2014 VANDEWALLE Florence 1/2 Marathon TCF 13 1h22'41'' qi SEF/83 IR1 Saint-denis
26/10/2014 CHEPANSQUI Stephane 1/2 Marathon TCM 242 1h21'56'' V1M/72 R4 Saint-denis
26/10/2014 LEBON Stephane 20 Km Route 8833 2h00'52'' VEM/73 D8 Marseille
02/11/2014 CHAPPLAIN Cecile Marathon TC 9430 3h48'57'' V1F/74 R3 New york
02/11/2014 CHEPANSQUI Stephane Marathon TC 9442 3h48'58'' V1M/72 D5 New york
09/11/2014 PINNA Eric 10 Km Route TC 24 32'39'' qi V1M/68 IR2 Montereau
11/11/2014 SCHNEIDER Antony ELITE MASCULINS ESM-SEM S 20 25'47'' SEM/85
Arnay-le-duc
16/11/2014 CASANOVA Sandrine 1/2 Marathon TC 3421 1h47'01'' qi VEF/68 D2 Boulogne billan
22/11/2014 VAILLANT-BULTEL Christophe Marathon TC 28 3h03'32'' qi VEM/73 R5 Villefranche su
30/11/2014 CASAUBON Nicolas Corrida De Fere-Champenoi 384 55'31'' VEM/67
Fere champenois
30/11/2014 CHEPANSQUI Stephane Corrida De Fere-Champenoi 26 43'57'' V1M/72
Fere champenois
30/11/2014 DUMONT Christelle Corrida De Fere-Champenoi 811 1h08'05'' V1F/74
Fere champenois
30/11/2014 GUSTAVE Patrice Corrida De Fere-Champenoi 25 43'57'' V1M/73
Fere champenois
30/11/2014 HERVY Alain Corrida De Fere-Champenoi 683 1h03'11'' V3M/55
Fere champenois
30/11/2014 HAILLOT Frederic Marathon TC 986 3h23'28'' V1M/67 D2 La rochelle
30/11/2014 RICHARD Olivier Marathon TC 1087 3h25'35'' SEM/78 D2 La rochelle
19/12/2014 BALSAMO Jean-charles Corrida De Noel 34 19'30'' V1M/70
Troyes
19/12/2014 BERLOT Alexandre Corrida De Noel 547 - SEM/80
Troyes
19/12/2014 BICHET Eugenie Corrida De Noel 740 - MIF/00
Troyes
19/12/2014 BILLIAUX Christelle Corrida De Noel 554 - SEF/87
Troyes
19/12/2014 BLICHARSKI Christelle Corrida De Noel 370 - V1F/72
Troyes
19/12/2014 BORDIER Estelle Corrida De Noel 739 - MIF/00
Troyes
19/12/2014 CARTIER Mickael Corrida De Noel 199 - SEM/81
Troyes
19/12/2014 CARTON Philomene Corrida De Noel 606 - CAF/98
Troyes
19/12/2014 CAYEZ Olivier Corrida De Noel 448 - SEM/76
Troyes
19/12/2014 CHAPPLAIN Cecile Corrida De Noel 228 - V1F/74
Troyes
19/12/2014 COTARD Marjory Corrida De Noel 227 - SEF/76
Troyes
19/12/2014 DEBLOCK Sophie Corrida De Noel 1034 - V2F/59
Troyes
19/12/2014 DERACHE David Corrida De Noel 6 17'00'' ESM/93
Troyes
19/12/2014 DESTENAY Katia Corrida De Noel 600 - V1F/70
Troyes
19/12/2014 DUBOIS Jean-claude Corrida De Noel 447 - V2M/63
Troyes
19/12/2014 DUC Marie-christine Corrida De Noel 323 - V2F/56
Troyes
19/12/2014 DUMONT Christelle Corrida De Noel 356 - V1F/74
Troyes
19/12/2014 DUMONT Xavier Corrida De Noel 182 - CAM/98
Troyes
19/12/2014 FABIANO Sebastien Corrida De Noel 406 - V1M/74
Troyes
19/12/2014 FAREZ Christian Corrida De Noel 611 - V1M/67
Troyes
19/12/2014 FAREZ Valerie Corrida De Noel 612 - V1F/68
Troyes
19/12/2014 FINCK Pascal Corrida De Noel